sensor_id;sensor_type;location;lat;lon;timestamp;temperature;humidity
3408;DHT22;1717;50.240;8.406;2022-12-04T00:00:27;5.00;99.90
3408;DHT22;1717;50.240;8.406;2022-12-04T00:02:54;4.90;99.90
3408;DHT22;1717;50.240;8.406;2022-12-04T00:05:21;5.00;99.90
3408;DHT22;1717;50.240;8.406;2022-12-04T00:07:47;5.00;99.90
3408;DHT22;1717;50.240;8.406;2022-12-04T00:10:14;5.20;99.90
3408;DHT22;1717;50.240;8.406;2022-12-04T00:12:41;5.20;99.90
3408;DHT22;1717;50.240;8.406;2022-12-04T00:15:10;5.20;99.90
3408;DHT22;1717;50.240;8.406;2022-12-04T00:17:37;5.10;99.90
3408;DHT22;1717;50.240;8.406;2022-12-04T00:20:05;5.10;99.90
3408;DHT22;1717;50.240;8.406;2022-12-04T00:22:32;5.10;99.90
3408;DHT22;1717;50.240;8.406;2022-12-04T00:24:59;5.10;99.90
3408;DHT22;1717;50.240;8.406;2022-12-04T00:27:25;5.00;99.90
3408;DHT22;1717;50.240;8.406;2022-12-04T00:29:52;5.10;99.90
3408;DHT22;1717;50.240;8.406;2022-12-04T00:32:20;5.20;99.90
3408;DHT22;1717;50.240;8.406;2022-12-04T00:34:50;5.10;99.90
3408;DHT22;1717;50.240;8.406;2022-12-04T00:37:17;5.10;99.90
3408;DHT22;1717;50.240;8.406;2022-12-04T00:39:44;5.00;99.90
3408;DHT22;1717;50.240;8.406;2022-12-04T00:42:11;5.10;99.90
3408;DHT22;1717;50.240;8.406;2022-12-04T00:44:38;5.10;99.90
3408;DHT22;1717;50.240;8.406;2022-12-04T00:47:04;5.20;99.90
3408;DHT22;1717;50.240;8.406;2022-12-04T00:49:33;5.20;99.90
3408;DHT22;1717;50.240;8.406;2022-12-04T00:51:59;5.20;99.90
3408;DHT22;1717;50.240;8.406;2022-12-04T00:54:27;5.10;99.90
3408;DHT22;1717;50.240;8.406;2022-12-04T00:56:54;5.10;99.90
3408;DHT22;1717;50.240;8.406;2022-12-04T00:59:21;5.10;99.90
3408;DHT22;1717;50.240;8.406;2022-12-04T01:01:48;5.20;99.90
3408;DHT22;1717;50.240;8.406;2022-12-04T01:04:14;5.20;99.90
3408;DHT22;1717;50.240;8.406;2022-12-04T01:06:43;5.30;99.90
3408;DHT22;1717;50.240;8.406;2022-12-04T01:09:09;5.20;99.90
3408;DHT22;1717;50.240;8.406;2022-12-04T01:11:36;5.30;99.90
3408;DHT22;1717;50.240;8.406;2022-12-04T01:14:03;5.20;99.90
3408;DHT22;1717;50.240;8.406;2022-12-04T01:16:32;5.20;99.90
3408;DHT22;1717;50.240;8.406;2022-12-04T01:18:59;5.30;99.90
3408;DHT22;1717;50.240;8.406;2022-12-04T01:21:26;5.20;99.90
3408;DHT22;1717;50.240;8.406;2022-12-04T01:23:55;5.20;99.90
3408;DHT22;1717;50.240;8.406;2022-12-04T01:26:22;5.10;99.90
3408;DHT22;1717;50.240;8.406;2022-12-04T01:28:49;5.10;99.90
3408;DHT22;1717;50.240;8.406;2022-12-04T01:31:18;5.20;99.90
3408;DHT22;1717;50.240;8.406;2022-12-04T01:33:45;5.20;99.90
3408;DHT22;1717;50.240;8.406;2022-12-04T01:36:14;5.20;99.90
3408;DHT22;1717;50.240;8.406;2022-12-04T01:38:42;5.10;99.90
3408;DHT22;1717;50.240;8.406;2022-12-04T01:41:11;5.10;99.90
3408;DHT22;1717;50.240;8.406;2022-12-04T01:43:39;5.20;99.90
3408;DHT22;1717;50.240;8.406;2022-12-04T01:46:06;5.10;99.90
3408;DHT22;1717;50.240;8.406;2022-12-04T01:48:35;5.10;99.90
3408;DHT22;1717;50.240;8.406;2022-12-04T01:51:07;5.10;99.90
3408;DHT22;1717;50.240;8.406;2022-12-04T01:53:36;5.10;99.90
3408;DHT22;1717;50.240;8.406;2022-12-04T01:56:04;5.10;99.90
3408;DHT22;1717;50.240;8.406;2022-12-04T01:58:35;5.10;99.90
3408;DHT22;1717;50.240;8.406;2022-12-04T02:01:05;5.10;99.90
3408;DHT22;1717;50.240;8.406;2022-12-04T02:03:33;5.10;99.90
3408;DHT22;1717;50.240;8.406;2022-12-04T02:06:00;5.10;99.90
3408;DHT22;1717;50.240;8.406;2022-12-04T02:08:27;5.10;99.90
3408;DHT22;1717;50.240;8.406;2022-12-04T02:11:04;5.10;99.90
3408;DHT22;1717;50.240;8.406;2022-12-04T02:13:41;5.10;99.90
3408;DHT22;1717;50.240;8.406;2022-12-04T02:16:19;5.00;99.90
3408;DHT22;1717;50.240;8.406;2022-12-04T02:18:55;5.00;99.90
3408;DHT22;1717;50.240;8.406;2022-12-04T02:21:28;5.00;99.90
3408;DHT22;1717;50.240;8.406;2022-12-04T02:24:07;5.10;99.90
3408;DHT22;1717;50.240;8.406;2022-12-04T02:26:41;5.10;99.90
3408;DHT22;1717;50.240;8.406;2022-12-04T02:29:21;5.10;99.90
3408;DHT22;1717;50.240;8.406;2022-12-04T02:31:52;5.10;99.90
3408;DHT22;1717;50.240;8.406;2022-12-04T02:34:24;5.00;99.90
3408;DHT22;1717;50.240;8.406;2022-12-04T02:36:57;5.00;99.90
3408;DHT22;1717;50.240;8.406;2022-12-04T02:39:32;5.00;99.90
3408;DHT22;1717;50.240;8.406;2022-12-04T02:42:03;5.00;99.90
3408;DHT22;1717;50.240;8.406;2022-12-04T02:44:38;4.90;99.90
3408;DHT22;1717;50.240;8.406;2022-12-04T02:47:12;4.90;99.90
3408;DHT22;1717;50.240;8.406;2022-12-04T02:49:43;4.90;99.90
3408;DHT22;1717;50.240;8.406;2022-12-04T02:52:13;4.90;99.90
3408;DHT22;1717;50.240;8.406;2022-12-04T02:54:45;5.00;99.90
3408;DHT22;1717;50.240;8.406;2022-12-04T02:57:15;4.80;99.90
3408;DHT22;1717;50.240;8.406;2022-12-04T02:59:48;4.80;99.90
3408;DHT22;1717;50.240;8.406;2022-12-04T03:02:20;4.80;99.90
3408;DHT22;1717;50.240;8.406;2022-12-04T03:04:50;4.90;99.90
3408;DHT22;1717;50.240;8.406;2022-12-04T03:07:20;4.80;99.90
3408;DHT22;1717;50.240;8.406;2022-12-04T03:09:52;4.80;99.90
3408;DHT22;1717;50.240;8.406;2022-12-04T03:12:28;4.80;99.90
3408;DHT22;1717;50.240;8.406;2022-12-04T03:15:03;4.70;99.90
3408;DHT22;1717;50.240;8.406;2022-12-04T03:17:36;4.80;99.90
3408;DHT22;1717;50.240;8.406;2022-12-04T03:20:08;4.90;99.90
3408;DHT22;1717;50.240;8.406;2022-12-04T03:22:38;4.90;99.90
3408;DHT22;1717;50.240;8.406;2022-12-04T03:25:07;4.90;99.90
3408;DHT22;1717;50.240;8.406;2022-12-04T03:27:39;4.90;99.90
3408;DHT22;1717;50.240;8.406;2022-12-04T03:30:12;4.90;99.90
3408;DHT22;1717;50.240;8.406;2022-12-04T03:32:44;4.90;99.90
3408;DHT22;1717;50.240;8.406;2022-12-04T03:35:14;4.80;99.90
3408;DHT22;1717;50.240;8.406;2022-12-04T03:37:47;4.80;99.90
3408;DHT22;1717;50.240;8.406;2022-12-04T03:40:20;4.80;99.90
3408;DHT22;1717;50.240;8.406;2022-12-04T03:42:53;4.80;99.90
3408;DHT22;1717;50.240;8.406;2022-12-04T03:45:26;4.90;99.90
3408;DHT22;1717;50.240;8.406;2022-12-04T03:47:56;4.90;99.90
3408;DHT22;1717;50.240;8.406;2022-12-04T03:50:31;4.80;99.90
3408;DHT22;1717;50.240;8.406;2022-12-04T03:53:03;4.80;99.90
3408;DHT22;1717;50.240;8.406;2022-12-04T03:55:37;4.90;99.90
3408;DHT22;1717;50.240;8.406;2022-12-04T03:58:08;4.90;99.90
3408;DHT22;1717;50.240;8.406;2022-12-04T04:00:41;4.80;99.90
3408;DHT22;1717;50.240;8.406;2022-12-04T04:03:10;4.80;99.90
3408;DHT22;1717;50.240;8.406;2022-12-04T04:05:43;4.70;99.90
3408;DHT22;1717;50.240;8.406;2022-12-04T04:08:14;4.70;99.90
3408;DHT22;1717;50.240;8.406;2022-12-04T04:10:54;4.60;99.90
3408;DHT22;1717;50.240;8.406;2022-12-04T04:13:25;4.60;99.90
3408;DHT22;1717;50.240;8.406;2022-12-04T04:16:15;4.70;99.90
3408;DHT22;1717;50.240;8.406;2022-12-04T04:19:01;4.70;99.90
3408;DHT22;1717;50.240;8.406;2022-12-04T04:21:48;4.70;99.90
3408;DHT22;1717;50.240;8.406;2022-12-04T04:24:40;4.70;99.90
3408;DHT22;1717;50.240;8.406;2022-12-04T04:27:07;4.60;99.90
3408;DHT22;1717;50.240;8.406;2022-12-04T04:29:34;4.70;99.90
3408;DHT22;1717;50.240;8.406;2022-12-04T04:32:07;4.70;99.90
3408;DHT22;1717;50.240;8.406;2022-12-04T04:34:42;4.70;99.90
3408;DHT22;1717;50.240;8.406;2022-12-04T04:37:18;4.70;99.90
3408;DHT22;1717;50.240;8.406;2022-12-04T04:39:50;4.70;99.90
3408;DHT22;1717;50.240;8.406;2022-12-04T04:42:23;4.60;99.90
3408;DHT22;1717;50.240;8.406;2022-12-04T04:44:52;4.60;99.90
3408;DHT22;1717;50.240;8.406;2022-12-04T04:47:27;4.60;99.90
3408;DHT22;1717;50.240;8.406;2022-12-04T04:49:56;4.60;99.90
3408;DHT22;1717;50.240;8.406;2022-12-04T04:52:24;4.60;99.90
3408;DHT22;1717;50.240;8.406;2022-12-04T04:54:51;4.60;99.90
3408;DHT22;1717;50.240;8.406;2022-12-04T04:57:25;4.60;99.90
3408;DHT22;1717;50.240;8.406;2022-12-04T04:59:52;4.50;99.90
3408;DHT22;1717;50.240;8.406;2022-12-04T05:02:19;4.60;99.90
3408;DHT22;1717;50.240;8.406;2022-12-04T05:04:47;4.60;99.90
3408;DHT22;1717;50.240;8.406;2022-12-04T05:07:14;4.60;99.90
3408;DHT22;1717;50.240;8.406;2022-12-04T05:09:41;4.70;99.90
3408;DHT22;1717;50.240;8.406;2022-12-04T05:12:08;4.70;99.90
3408;DHT22;1717;50.240;8.406;2022-12-04T05:14:35;4.70;99.90
3408;DHT22;1717;50.240;8.406;2022-12-04T05:17:03;4.60;99.90
3408;DHT22;1717;50.240;8.406;2022-12-04T05:19:31;4.60;99.90
3408;DHT22;1717;50.240;8.406;2022-12-04T05:22:18;4.60;99.90
3408;DHT22;1717;50.240;8.406;2022-12-04T05:24:44;4.60;99.90
3408;DHT22;1717;50.240;8.406;2022-12-04T05:27:11;4.60;99.90
3408;DHT22;1717;50.240;8.406;2022-12-04T05:29:38;4.40;99.90
3408;DHT22;1717;50.240;8.406;2022-12-04T05:32:05;4.40;99.90
3408;DHT22;1717;50.240;8.406;2022-12-04T05:34:32;4.40;99.90
3408;DHT22;1717;50.240;8.406;2022-12-04T05:36:59;4.30;99.90
3408;DHT22;1717;50.240;8.406;2022-12-04T05:39:27;4.30;99.90
3408;DHT22;1717;50.240;8.406;2022-12-04T05:41:53;4.20;99.90
3408;DHT22;1717;50.240;8.406;2022-12-04T05:44:20;4.20;99.90
3408;DHT22;1717;50.240;8.406;2022-12-04T05:46:47;4.20;99.90
3408;DHT22;1717;50.240;8.406;2022-12-04T05:49:14;4.20;99.90
3408;DHT22;1717;50.240;8.406;2022-12-04T05:51:41;4.20;99.90
3408;DHT22;1717;50.240;8.406;2022-12-04T05:54:07;4.20;99.90
3408;DHT22;1717;50.240;8.406;2022-12-04T05:56:36;4.20;99.90
3408;DHT22;1717;50.240;8.406;2022-12-04T05:59:02;4.20;99.90
3408;DHT22;1717;50.240;8.406;2022-12-04T06:01:29;4.10;99.90
3408;DHT22;1717;50.240;8.406;2022-12-04T06:03:56;4.20;99.90
3408;DHT22;1717;50.240;8.406;2022-12-04T06:06:24;4.20;99.90
3408;DHT22;1717;50.240;8.406;2022-12-04T06:08:53;4.30;99.90
3408;DHT22;1717;50.240;8.406;2022-12-04T06:11:23;4.20;99.90
3408;DHT22;1717;50.240;8.406;2022-12-04T06:13:52;4.20;99.90
3408;DHT22;1717;50.240;8.406;2022-12-04T06:16:20;4.10;99.90
3408;DHT22;1717;50.240;8.406;2022-12-04T06:18:48;4.20;99.90
3408;DHT22;1717;50.240;8.406;2022-12-04T06:21:16;4.20;99.90
3408;DHT22;1717;50.240;8.406;2022-12-04T06:23:43;4.30;99.90
3408;DHT22;1717;50.240;8.406;2022-12-04T06:26:10;4.20;99.90
3408;DHT22;1717;50.240;8.406;2022-12-04T06:28:37;4.20;99.90
3408;DHT22;1717;50.240;8.406;2022-12-04T06:31:08;4.30;99.90
3408;DHT22;1717;50.240;8.406;2022-12-04T06:33:35;4.20;99.90
3408;DHT22;1717;50.240;8.406;2022-12-04T06:36:05;4.10;99.90
3408;DHT22;1717;50.240;8.406;2022-12-04T06:38:32;4.20;99.90
3408;DHT22;1717;50.240;8.406;2022-12-04T06:41:02;4.20;99.90
3408;DHT22;1717;50.240;8.406;2022-12-04T06:43:29;4.20;99.90
3408;DHT22;1717;50.240;8.406;2022-12-04T06:46:00;4.10;99.90
3408;DHT22;1717;50.240;8.406;2022-12-04T06:48:29;4.10;99.90
3408;DHT22;1717;50.240;8.406;2022-12-04T06:51:00;4.10;99.90
3408;DHT22;1717;50.240;8.406;2022-12-04T06:53:27;4.10;99.90
3408;DHT22;1717;50.240;8.406;2022-12-04T06:55:56;4.10;99.90
3408;DHT22;1717;50.240;8.406;2022-12-04T06:58:23;4.10;99.90
3408;DHT22;1717;50.240;8.406;2022-12-04T07:00:50;4.10;99.90
3408;DHT22;1717;50.240;8.406;2022-12-04T07:03:17;4.10;99.90
3408;DHT22;1717;50.240;8.406;2022-12-04T07:05:45;4.20;99.90
3408;DHT22;1717;50.240;8.406;2022-12-04T07:08:12;4.10;99.90
3408;DHT22;1717;50.240;8.406;2022-12-04T07:10:39;4.10;99.90
3408;DHT22;1717;50.240;8.406;2022-12-04T07:13:08;4.20;99.90
3408;DHT22;1717;50.240;8.406;2022-12-04T07:15:36;4.10;99.90
3408;DHT22;1717;50.240;8.406;2022-12-04T07:18:04;4.00;99.90
3408;DHT22;1717;50.240;8.406;2022-12-04T07:20:31;3.80;99.90
3408;DHT22;1717;50.240;8.406;2022-12-04T07:22:59;3.80;99.90
3408;DHT22;1717;50.240;8.406;2022-12-04T07:25:26;3.70;99.90
3408;DHT22;1717;50.240;8.406;2022-12-04T07:27:55;3.70;99.90
3408;DHT22;1717;50.240;8.406;2022-12-04T07:30:22;3.70;99.90
3408;DHT22;1717;50.240;8.406;2022-12-04T07:32:49;3.70;99.90
3408;DHT22;1717;50.240;8.406;2022-12-04T07:35:16;3.80;99.90
3408;DHT22;1717;50.240;8.406;2022-12-04T07:37:42;3.60;99.90
3408;DHT22;1717;50.240;8.406;2022-12-04T07:40:12;3.60;99.90
3408;DHT22;1717;50.240;8.406;2022-12-04T07:42:39;3.70;99.90
3408;DHT22;1717;50.240;8.406;2022-12-04T07:45:07;3.70;99.90
3408;DHT22;1717;50.240;8.406;2022-12-04T07:47:34;3.70;99.90
3408;DHT22;1717;50.240;8.406;2022-12-04T07:50:02;3.70;99.90
3408;DHT22;1717;50.240;8.406;2022-12-04T07:52:29;3.70;99.90
3408;DHT22;1717;50.240;8.406;2022-12-04T07:54:56;3.60;99.90
3408;DHT22;1717;50.240;8.406;2022-12-04T07:57:24;3.70;99.90
3408;DHT22;1717;50.240;8.406;2022-12-04T07:59:51;3.70;99.90
3408;DHT22;1717;50.240;8.406;2022-12-04T08:02:18;3.60;99.90
3408;DHT22;1717;50.240;8.406;2022-12-04T08:04:46;3.60;99.90
3408;DHT22;1717;50.240;8.406;2022-12-04T08:07:12;3.60;99.90
3408;DHT22;1717;50.240;8.406;2022-12-04T08:09:39;3.70;99.90
3408;DHT22;1717;50.240;8.406;2022-12-04T08:12:07;3.70;99.90
3408;DHT22;1717;50.240;8.406;2022-12-04T08:14:35;3.70;99.90
3408;DHT22;1717;50.240;8.406;2022-12-04T08:17:02;3.70;99.90
3408;DHT22;1717;50.240;8.406;2022-12-04T08:19:29;3.60;99.90
3408;DHT22;1717;50.240;8.406;2022-12-04T08:21:55;3.60;99.90
3408;DHT22;1717;50.240;8.406;2022-12-04T08:24:28;3.70;99.90
3408;DHT22;1717;50.240;8.406;2022-12-04T08:26:55;3.70;99.90
3408;DHT22;1717;50.240;8.406;2022-12-04T08:29:22;3.70;99.90
3408;DHT22;1717;50.240;8.406;2022-12-04T08:31:50;3.60;99.90
3408;DHT22;1717;50.240;8.406;2022-12-04T08:34:17;3.70;99.90
3408;DHT22;1717;50.240;8.406;2022-12-04T08:36:44;3.80;99.90
3408;DHT22;1717;50.240;8.406;2022-12-04T08:39:11;3.70;99.90
3408;DHT22;1717;50.240;8.406;2022-12-04T08:41:41;3.70;99.90
3408;DHT22;1717;50.240;8.406;2022-12-04T08:44:08;3.70;99.90
3408;DHT22;1717;50.240;8.406;2022-12-04T08:46:35;3.80;99.90
3408;DHT22;1717;50.240;8.406;2022-12-04T08:49:03;3.90;99.90
3408;DHT22;1717;50.240;8.406;2022-12-04T08:51:32;3.80;99.90
3408;DHT22;1717;50.240;8.406;2022-12-04T08:54:02;3.80;99.90
3408;DHT22;1717;50.240;8.406;2022-12-04T08:56:30;3.80;99.90
3408;DHT22;1717;50.240;8.406;2022-12-04T08:58:58;3.80;99.90
3408;DHT22;1717;50.240;8.406;2022-12-04T09:01:26;3.80;99.90
3408;DHT22;1717;50.240;8.406;2022-12-04T09:03:53;3.90;99.90
3408;DHT22;1717;50.240;8.406;2022-12-04T09:06:22;3.90;99.90
3408;DHT22;1717;50.240;8.406;2022-12-04T09:08:51;3.80;99.90
3408;DHT22;1717;50.240;8.406;2022-12-04T09:11:20;3.80;99.90
3408;DHT22;1717;50.240;8.406;2022-12-04T09:13:47;3.80;99.90
3408;DHT22;1717;50.240;8.406;2022-12-04T09:16:19;3.80;99.90
3408;DHT22;1717;50.240;8.406;2022-12-04T09:18:47;3.90;99.90
3408;DHT22;1717;50.240;8.406;2022-12-04T09:21:16;3.80;99.90
3408;DHT22;1717;50.240;8.406;2022-12-04T09:23:45;3.80;99.90
3408;DHT22;1717;50.240;8.406;2022-12-04T09:26:20;3.80;99.90
3408;DHT22;1717;50.240;8.406;2022-12-04T09:28:48;3.90;99.90
3408;DHT22;1717;50.240;8.406;2022-12-04T09:31:16;3.90;99.90
3408;DHT22;1717;50.240;8.406;2022-12-04T09:33:43;3.90;99.90
3408;DHT22;1717;50.240;8.406;2022-12-04T09:36:10;3.90;99.90
3408;DHT22;1717;50.240;8.406;2022-12-04T09:38:41;3.90;99.90
3408;DHT22;1717;50.240;8.406;2022-12-04T09:41:31;3.90;99.90
3408;DHT22;1717;50.240;8.406;2022-12-04T09:44:06;3.90;99.90
3408;DHT22;1717;50.240;8.406;2022-12-04T09:46:35;3.90;99.90
3408;DHT22;1717;50.240;8.406;2022-12-04T09:49:05;4.00;99.90
3408;DHT22;1717;50.240;8.406;2022-12-04T09:51:35;3.90;99.90
3408;DHT22;1717;50.240;8.406;2022-12-04T09:54:09;4.00;99.90
3408;DHT22;1717;50.240;8.406;2022-12-04T09:56:37;4.00;99.90
3408;DHT22;1717;50.240;8.406;2022-12-04T09:59:10;4.00;99.90
3408;DHT22;1717;50.240;8.406;2022-12-04T10:01:44;4.00;99.90
3408;DHT22;1717;50.240;8.406;2022-12-04T10:04:12;4.10;99.90
3408;DHT22;1717;50.240;8.406;2022-12-04T10:06:42;4.10;99.90
3408;DHT22;1717;50.240;8.406;2022-12-04T10:09:13;4.10;99.90
3408;DHT22;1717;50.240;8.406;2022-12-04T10:11:49;4.10;99.90
3408;DHT22;1717;50.240;8.406;2022-12-04T10:14:28;4.10;99.90
3408;DHT22;1717;50.240;8.406;2022-12-04T10:17:13;4.10;99.90
3408;DHT22;1717;50.240;8.406;2022-12-04T10:19:50;4.10;99.90
3408;DHT22;1717;50.240;8.406;2022-12-04T10:22:23;4.10;99.90
3408;DHT22;1717;50.240;8.406;2022-12-04T10:24:52;4.10;99.90
3408;DHT22;1717;50.240;8.406;2022-12-04T10:27:24;4.10;99.90
3408;DHT22;1717;50.240;8.406;2022-12-04T10:29:54;4.10;99.90
3408;DHT22;1717;50.240;8.406;2022-12-04T10:32:27;4.20;99.90
3408;DHT22;1717;50.240;8.406;2022-12-04T10:34:58;4.20;99.90
3408;DHT22;1717;50.240;8.406;2022-12-04T10:37:40;4.10;99.90
3408;DHT22;1717;50.240;8.406;2022-12-04T10:40:14;4.10;99.90
3408;DHT22;1717;50.240;8.406;2022-12-04T10:42:49;4.10;99.90
3408;DHT22;1717;50.240;8.406;2022-12-04T10:45:19;4.10;99.90
3408;DHT22;1717;50.240;8.406;2022-12-04T10:47:48;4.10;99.90
3408;DHT22;1717;50.240;8.406;2022-12-04T10:50:17;4.10;99.90
3408;DHT22;1717;50.240;8.406;2022-12-04T10:52:45;4.10;99.90
3408;DHT22;1717;50.240;8.406;2022-12-04T10:55:12;4.10;99.90
3408;DHT22;1717;50.240;8.406;2022-12-04T10:57:41;4.20;99.90
3408;DHT22;1717;50.240;8.406;2022-12-04T11:00:29;4.20;99.90
3408;DHT22;1717;50.240;8.406;2022-12-04T11:02:58;4.20;99.90
3408;DHT22;1717;50.240;8.406;2022-12-04T11:05:29;4.20;99.90
3408;DHT22;1717;50.240;8.406;2022-12-04T11:07:59;4.30;99.90
3408;DHT22;1717;50.240;8.406;2022-12-04T11:10:31;4.30;99.90
3408;DHT22;1717;50.240;8.406;2022-12-04T11:13:01;4.30;99.90
3408;DHT22;1717;50.240;8.406;2022-12-04T11:15:29;4.30;99.90
3408;DHT22;1717;50.240;8.406;2022-12-04T11:18:06;4.30;99.90
3408;DHT22;1717;50.240;8.406;2022-12-04T11:20:34;4.30;99.90
3408;DHT22;1717;50.240;8.406;2022-12-04T11:23:01;4.40;99.90
3408;DHT22;1717;50.240;8.406;2022-12-04T11:25:32;4.30;99.90
3408;DHT22;1717;50.240;8.406;2022-12-04T11:28:01;4.10;99.90
3408;DHT22;1717;50.240;8.406;2022-12-04T11:30:31;4.00;99.90
3408;DHT22;1717;50.240;8.406;2022-12-04T11:32:59;4.10;99.90
3408;DHT22;1717;50.240;8.406;2022-12-04T11:35:28;4.20;99.90
3408;DHT22;1717;50.240;8.406;2022-12-04T11:37:57;4.20;99.90
3408;DHT22;1717;50.240;8.406;2022-12-04T11:40:24;4.30;99.90
3408;DHT22;1717;50.240;8.406;2022-12-04T11:42:58;4.30;99.90
3408;DHT22;1717;50.240;8.406;2022-12-04T11:45:26;4.30;99.90
3408;DHT22;1717;50.240;8.406;2022-12-04T11:47:55;4.20;99.90
3408;DHT22;1717;50.240;8.406;2022-12-04T11:50:29;4.30;99.90
3408;DHT22;1717;50.240;8.406;2022-12-04T11:53:04;4.20;99.90
3408;DHT22;1717;50.240;8.406;2022-12-04T11:55:42;4.20;99.90
3408;DHT22;1717;50.240;8.406;2022-12-04T12:01:19;4.20;99.90
3408;DHT22;1717;50.240;8.406;2022-12-04T12:04:02;4.20;99.90
3408;DHT22;1717;50.240;8.406;2022-12-04T12:06:34;4.20;99.90
3408;DHT22;1717;50.240;8.406;2022-12-04T12:09:17;4.20;99.90
3408;DHT22;1717;50.240;8.406;2022-12-04T12:11:50;4.10;99.90
3408;DHT22;1717;50.240;8.406;2022-12-04T12:14:27;4.20;99.90
3408;DHT22;1717;50.240;8.406;2022-12-04T12:17:05;4.20;99.90
3408;DHT22;1717;50.240;8.406;2022-12-04T12:19:51;4.20;99.90
3408;DHT22;1717;50.240;8.406;2022-12-04T12:22:31;4.30;99.90
3408;DHT22;1717;50.240;8.406;2022-12-04T12:25:05;4.30;99.90
3408;DHT22;1717;50.240;8.406;2022-12-04T12:27:49;4.30;99.90
3408;DHT22;1717;50.240;8.406;2022-12-04T12:30:21;4.40;99.90
3408;DHT22;1717;50.240;8.406;2022-12-04T12:33:03;4.40;99.90
3408;DHT22;1717;50.240;8.406;2022-12-04T12:35:38;4.40;99.90
3408;DHT22;1717;50.240;8.406;2022-12-04T12:38:09;4.30;99.90
3408;DHT22;1717;50.240;8.406;2022-12-04T12:40:39;4.30;99.90
3408;DHT22;1717;50.240;8.406;2022-12-04T12:43:12;4.30;99.90
3408;DHT22;1717;50.240;8.406;2022-12-04T12:45:44;4.30;99.90
3408;DHT22;1717;50.240;8.406;2022-12-04T12:48:21;4.30;99.90
3408;DHT22;1717;50.240;8.406;2022-12-04T12:50:53;4.30;99.90
3408;DHT22;1717;50.240;8.406;2022-12-04T12:53:24;4.30;99.90
3408;DHT22;1717;50.240;8.406;2022-12-04T12:55:53;4.30;99.90
3408;DHT22;1717;50.240;8.406;2022-12-04T12:58:25;4.20;99.90
3408;DHT22;1717;50.240;8.406;2022-12-04T13:00:58;4.30;99.90
3408;DHT22;1717;50.240;8.406;2022-12-04T13:03:31;4.20;99.90
3408;DHT22;1717;50.240;8.406;2022-12-04T13:06:06;4.20;99.90
3408;DHT22;1717;50.240;8.406;2022-12-04T13:08:38;4.20;99.90
3408;DHT22;1717;50.240;8.406;2022-12-04T13:11:10;4.30;99.90
3408;DHT22;1717;50.240;8.406;2022-12-04T13:13:42;4.30;99.90
3408;DHT22;1717;50.240;8.406;2022-12-04T13:16:14;4.30;99.90
3408;DHT22;1717;50.240;8.406;2022-12-04T13:18:47;4.40;99.90
3408;DHT22;1717;50.240;8.406;2022-12-04T13:21:27;4.30;99.90
3408;DHT22;1717;50.240;8.406;2022-12-04T13:24:14;4.40;99.90
3408;DHT22;1717;50.240;8.406;2022-12-04T13:26:49;4.30;99.90
3408;DHT22;1717;50.240;8.406;2022-12-04T13:29:32;4.40;99.90
3408;DHT22;1717;50.240;8.406;2022-12-04T13:32:11;4.30;99.90
3408;DHT22;1717;50.240;8.406;2022-12-04T13:34:57;4.30;99.90
3408;DHT22;1717;50.240;8.406;2022-12-04T13:37:53;4.30;99.90
3408;DHT22;1717;50.240;8.406;2022-12-04T13:40:35;4.30;99.90
3408;DHT22;1717;50.240;8.406;2022-12-04T13:43:20;4.30;99.90
3408;DHT22;1717;50.240;8.406;2022-12-04T13:45:52;4.20;99.90
3408;DHT22;1717;50.240;8.406;2022-12-04T13:48:34;4.20;99.90
3408;DHT22;1717;50.240;8.406;2022-12-04T13:51:19;4.20;99.90
3408;DHT22;1717;50.240;8.406;2022-12-04T13:54:00;4.20;99.90
3408;DHT22;1717;50.240;8.406;2022-12-04T13:56:29;4.30;99.90
3408;DHT22;1717;50.240;8.406;2022-12-04T13:59:01;4.20;99.90
3408;DHT22;1717;50.240;8.406;2022-12-04T14:01:33;4.20;99.90
3408;DHT22;1717;50.240;8.406;2022-12-04T14:04:02;4.30;99.90
3408;DHT22;1717;50.240;8.406;2022-12-04T14:06:34;4.30;99.90
3408;DHT22;1717;50.240;8.406;2022-12-04T14:09:05;4.30;99.90
3408;DHT22;1717;50.240;8.406;2022-12-04T14:11:42;4.30;99.90
3408;DHT22;1717;50.240;8.406;2022-12-04T14:14:24;4.40;99.90
3408;DHT22;1717;50.240;8.406;2022-12-04T14:16:52;4.40;99.90
3408;DHT22;1717;50.240;8.406;2022-12-04T14:19:29;4.40;99.90
3408;DHT22;1717;50.240;8.406;2022-12-04T14:21:57;4.40;99.90
3408;DHT22;1717;50.240;8.406;2022-12-04T14:24:32;4.40;99.90
3408;DHT22;1717;50.240;8.406;2022-12-04T14:27:03;4.50;99.90
3408;DHT22;1717;50.240;8.406;2022-12-04T14:29:51;4.50;99.90
3408;DHT22;1717;50.240;8.406;2022-12-04T14:32:22;4.60;99.90
3408;DHT22;1717;50.240;8.406;2022-12-04T14:34:50;4.60;99.90
3408;DHT22;1717;50.240;8.406;2022-12-04T14:37:26;4.70;99.90
3408;DHT22;1717;50.240;8.406;2022-12-04T14:39:56;4.80;99.90
3408;DHT22;1717;50.240;8.406;2022-12-04T14:42:25;4.90;99.90
3408;DHT22;1717;50.240;8.406;2022-12-04T14:44:55;4.90;99.90
3408;DHT22;1717;50.240;8.406;2022-12-04T14:47:32;4.90;99.90
3408;DHT22;1717;50.240;8.406;2022-12-04T14:50:12;5.00;99.90
3408;DHT22;1717;50.240;8.406;2022-12-04T14:52:44;5.00;99.90
3408;DHT22;1717;50.240;8.406;2022-12-04T14:55:21;5.00;99.90
3408;DHT22;1717;50.240;8.406;2022-12-04T14:57:56;5.00;99.90
3408;DHT22;1717;50.240;8.406;2022-12-04T15:00:24;5.10;99.90
3408;DHT22;1717;50.240;8.406;2022-12-04T15:02:52;5.10;99.90
3408;DHT22;1717;50.240;8.406;2022-12-04T15:05:25;5.00;99.90
3408;DHT22;1717;50.240;8.406;2022-12-04T15:07:55;5.10;99.90
3408;DHT22;1717;50.240;8.406;2022-12-04T15:10:26;5.20;99.90
3408;DHT22;1717;50.240;8.406;2022-12-04T15:13:12;5.20;99.90
3408;DHT22;1717;50.240;8.406;2022-12-04T15:15:44;5.20;99.90
3408;DHT22;1717;50.240;8.406;2022-12-04T15:18:13;5.20;99.90
3408;DHT22;1717;50.240;8.406;2022-12-04T15:20:43;5.20;99.90
3408;DHT22;1717;50.240;8.406;2022-12-04T15:23:21;5.30;99.90
3408;DHT22;1717;50.240;8.406;2022-12-04T15:25:53;5.30;99.90
3408;DHT22;1717;50.240;8.406;2022-12-04T15:28:22;5.30;99.90
3408;DHT22;1717;50.240;8.406;2022-12-04T15:30:51;5.30;99.90
3408;DHT22;1717;50.240;8.406;2022-12-04T15:33:22;5.30;99.90
3408;DHT22;1717;50.240;8.406;2022-12-04T15:35:55;5.40;99.90
3408;DHT22;1717;50.240;8.406;2022-12-04T15:38:22;5.40;99.90
3408;DHT22;1717;50.240;8.406;2022-12-04T15:40:53;5.40;99.90
3408;DHT22;1717;50.240;8.406;2022-12-04T15:43:29;5.40;99.90
3408;DHT22;1717;50.240;8.406;2022-12-04T15:45:57;5.50;99.90
3408;DHT22;1717;50.240;8.406;2022-12-04T15:48:26;5.40;99.90
3408;DHT22;1717;50.240;8.406;2022-12-04T15:50:57;5.40;99.90
3408;DHT22;1717;50.240;8.406;2022-12-04T15:53:27;5.40;99.90
3408;DHT22;1717;50.240;8.406;2022-12-04T15:55:58;5.50;99.90
3408;DHT22;1717;50.240;8.406;2022-12-04T15:58:28;5.60;99.90
3408;DHT22;1717;50.240;8.406;2022-12-04T16:00:57;5.50;99.90
3408;DHT22;1717;50.240;8.406;2022-12-04T16:03:27;5.50;99.90
3408;DHT22;1717;50.240;8.406;2022-12-04T16:06:13;5.60;99.90
3408;DHT22;1717;50.240;8.406;2022-12-04T16:08:42;5.60;99.90
3408;DHT22;1717;50.240;8.406;2022-12-04T16:11:27;5.60;99.90
3408;DHT22;1717;50.240;8.406;2022-12-04T16:14:04;5.60;99.90
3408;DHT22;1717;50.240;8.406;2022-12-04T16:16:31;5.60;99.90
3408;DHT22;1717;50.240;8.406;2022-12-04T16:18:58;5.60;99.90
3408;DHT22;1717;50.240;8.406;2022-12-04T16:21:30;5.70;99.90
3408;DHT22;1717;50.240;8.406;2022-12-04T16:24:00;5.70;99.90
3408;DHT22;1717;50.240;8.406;2022-12-04T16:26:29;5.70;99.90
3408;DHT22;1717;50.240;8.406;2022-12-04T16:28:56;5.80;99.90
3408;DHT22;1717;50.240;8.406;2022-12-04T16:31:25;5.70;99.90
3408;DHT22;1717;50.240;8.406;2022-12-04T16:33:52;5.70;99.90
3408;DHT22;1717;50.240;8.406;2022-12-04T16:36:19;5.70;99.90
3408;DHT22;1717;50.240;8.406;2022-12-04T16:38:46;5.70;99.90
3408;DHT22;1717;50.240;8.406;2022-12-04T16:41:14;5.70;99.90
3408;DHT22;1717;50.240;8.406;2022-12-04T16:43:42;5.70;99.90